Time;durP1;ratioP1;P1;durP2;ratioP2;P2;SDS_P1;SDS_P2;PMS_P1;PMS_P2;Temp;Humidity;BMP_temperature;BMP_pressure;BME280_temperature;BME280_humidity;BME280_pressure;Samples;Min_cycle;Max_cycle;Signal;HPM_P1;HPM_P2
2021/03/22 00:00:19;;;;;;;56.88;30.95;;;;;;;0.76;69.91;99625.75;5081723;28;20070;-71
2021/03/22 00:02:47;;;;;;;56.40;29.60;;;;;;;0.76;69.60;99629.19;5082594;28;20340;-71
2021/03/22 00:05:14;;;;;;;60.92;30.92;;;;;;;0.73;69.47;99629.31;5081013;28;20112;-69
2021/03/22 00:07:40;;;;;;;49.63;25.58;;;;;;;0.75;69.35;99632.69;5083087;28;20127;-69
2021/03/22 00:10:08;;;;;;;85.97;36.63;;;;;;;0.74;69.20;99632.78;5082250;28;20044;-70
2021/03/22 00:12:34;;;;;;;74.00;40.95;;;;;;;0.73;69.14;99636.28;5079816;28;20623;-71
2021/03/22 00:15:00;;;;;;;99.28;57.85;;;;;;;0.71;69.21;99640.69;5082609;28;20058;-72
2021/03/22 00:17:27;;;;;;;96.03;50.85;;;;;;;0.69;69.17;99637.31;5081766;28;20063;-70
2021/03/22 00:19:54;;;;;;;69.47;35.95;;;;;;;0.70;69.53;99636.38;5080930;28;20048;-70
2021/03/22 00:22:21;;;;;;;65.97;32.38;;;;;;;0.66;69.59;99640.03;5082349;28;20453;-70
2021/03/22 00:24:48;;;;;;;50.83;28.45;;;;;;;0.65;69.39;99635.72;5082218;28;20040;-70
2021/03/22 00:27:14;;;;;;;40.92;21.45;;;;;;;0.60;69.68;99642.91;5080800;28;20097;-70
2021/03/22 00:29:41;;;;;;;41.30;20.70;;;;;;;0.61;69.58;99644.56;5082216;28;20122;-70
2021/03/22 00:32:08;;;;;;;50.58;23.05;;;;;;;0.62;69.35;99636.72;5082752;28;20119;-71
2021/03/22 00:34:34;;;;;;;44.85;23.48;;;;;;;0.61;69.28;99637.59;5081383;28;20052;-70
2021/03/22 00:37:02;;;;;;;57.92;29.60;;;;;;;0.58;69.41;99648.16;5082721;28;20055;-69
2021/03/22 00:39:28;;;;;;;57.97;32.25;;;;;;;0.52;69.50;99646.66;5082847;28;20468;-72
2021/03/22 00:41:55;;;;;;;57.33;28.27;;;;;;;0.53;69.64;99642.28;5078530;28;20630;-72
2021/03/22 00:44:21;;;;;;;51.85;31.27;;;;;;;0.51;69.75;99647.53;5083225;28;20056;-70
2021/03/22 00:46:48;;;;;;;46.35;23.23;;;;;;;0.49;69.73;99641.56;5083103;28;20055;-73
2021/03/22 00:49:14;;;;;;;61.47;32.13;;;;;;;0.44;69.73;99647.88;5081446;28;20100;-72
2021/03/22 00:51:41;;;;;;;41.00;25.10;;;;;;;0.44;69.96;99651.31;5082479;28;20048;-71
2021/03/22 00:54:08;;;;;;;34.08;18.17;;;;;;;0.44;69.95;99656.50;5081898;28;20047;-70
2021/03/22 00:56:34;;;;;;;37.95;20.60;;;;;;;0.40;69.79;99647.16;5081628;28;20040;-74
2021/03/22 00:59:01;;;;;;;31.95;17.52;;;;;;;0.40;69.75;99648.88;5082787;28;20066;-72
2021/03/22 01:01:27;;;;;;;43.45;23.35;;;;;;;0.41;69.62;99653.19;5082030;28;20619;-71
2021/03/22 01:03:53;;;;;;;50.22;23.98;;;;;;;0.35;69.90;99654.28;5081215;28;20611;-70
2021/03/22 01:06:20;;;;;;;41.30;22.83;;;;;;;0.32;70.07;99655.22;5082862;28;20397;-70
2021/03/22 01:08:46;;;;;;;50.58;24.00;;;;;;;0.34;69.90;99653.44;5082549;28;20055;-72
2021/03/22 01:11:17;;;;;;;36.95;19.85;;;;;;;0.37;70.03;99658.50;5079590;28;20048;-71
2021/03/22 01:13:46;;;;;;;38.05;18.63;;;;;;;0.35;70.01;99659.47;5083122;28;20119;-70
2021/03/22 01:16:13;;;;;;;38.35;21.55;;;;;;;0.30;69.81;99661.41;5082643;28;20044;-72
2021/03/22 01:18:43;;;;;;;50.50;24.42;;;;;;;0.30;70.00;99659.66;5081756;28;20056;-71
2021/03/22 01:21:14;;;;;;;49.63;25.00;;;;;;;0.31;70.11;99658.75;5082352;28;20048;-72
2021/03/22 01:23:40;;;;;;;47.63;23.50;;;;;;;0.28;70.03;99658.03;5081808;28;20052;-72
2021/03/22 01:26:08;;;;;;;46.03;23.90;;;;;;;0.25;70.26;99658.13;5081938;28;20044;-71
2021/03/22 01:28:37;;;;;;;45.75;19.75;;;;;;;0.31;69.92;99663.94;5082628;28;20498;-71
2021/03/22 01:31:03;;;;;;;38.92;21.58;;;;;;;0.29;69.75;99664.88;5081990;28;20475;-74
2021/03/22 01:33:35;;;;;;;37.78;20.60;;;;;;;0.26;69.86;99655.47;5081627;28;20044;-73
2021/03/22 01:36:04;;;;;;;51.17;20.55;;;;;;;0.27;69.93;99667.56;5082239;28;20048;-71
2021/03/22 01:38:31;;;;;;;50.58;24.45;;;;;;;0.26;69.59;99665.03;5081549;28;20051;-70
2021/03/22 01:41:19;;;;;;;55.75;27.35;;;;;;;0.26;69.64;99670.22;5082690;28;20499;-70
2021/03/22 01:44:06;;;;;;;52.00;26.27;;;;;;;0.38;69.39;99667.16;5082272;28;20418;-72
2021/03/22 01:46:33;;;;;;;60.42;30.08;;;;;;;0.39;69.59;99666.22;5081663;28;20044;-70
2021/03/22 01:49:03;;;;;;;58.60;27.25;;;;;;;0.37;69.14;99668.88;5082170;28;20129;-71
2021/03/22 01:51:30;;;;;;;67.40;34.97;;;;;;;0.35;69.21;99669.88;5081469;28;20078;-71
2021/03/22 01:53:57;;;;;;;68.05;34.75;;;;;;;0.32;69.23;99675.16;5082474;28;20101;-70
2021/03/22 01:56:32;;;;;;;54.97;31.92;;;;;;;0.29;69.35;99676.16;5085819;28;20059;-71
2021/03/22 01:58:59;;;;;;;60.58;28.60;;;;;;;0.25;69.12;99676.31;5085820;28;20059;-70
2021/03/22 02:01:29;;;;;;;58.53;28.45;;;;;;;0.23;69.09;99683.31;5085178;28;20072;-72
2021/03/22 02:03:56;;;;;;;72.72;31.02;;;;;;;0.17;69.23;99679.22;5085990;28;20614;-72
2021/03/22 02:06:23;;;;;;;76.60;35.00;;;;;;;0.14;69.20;99685.38;5085569;28;20051;-71
2021/03/22 02:08:52;;;;;;;76.18;36.80;;;;;;;0.12;69.26;99679.38;5084648;28;20048;-72
2021/03/22 02:11:20;;;;;;;60.80;28.85;;;;;;;0.10;69.19;99688.16;5084071;28;20052;-71
2021/03/22 02:13:47;;;;;;;63.15;30.27;;;;;;;0.08;69.53;99684.78;5085728;28;20040;-73
2021/03/22 02:16:17;;;;;;;60.03;29.33;;;;;;;0.10;69.33;99686.41;5084849;28;20040;-72
2021/03/22 02:18:56;;;;;;;59.63;29.15;;;;;;;0.08;69.27;99683.03;5085567;28;20137;-72
2021/03/22 02:21:41;;;;;;;45.17;31.27;;;;;;;0.08;69.40;99687.38;5085241;28;20054;-72
2021/03/22 02:24:46;;;;;;;55.13;27.88;;;;;;;0.07;69.26;99689.09;5085462;28;20048;-70
2021/03/22 02:27:57;;;;;;;53.30;28.02;;;;;;;0.04;69.20;99691.84;5085524;28;20048;-72
2021/03/22 02:31:05;;;;;;;62.13;27.63;;;;;;;0.00;69.55;99685.06;5085172;28;20067;-71
2021/03/22 02:34:01;;;;;;;56.28;28.70;;;;;;;0.02;69.13;99695.38;5084304;28;20113;-73
2021/03/22 02:36:35;;;;;;;129.65;77.28;;;;;;;-0.01;69.30;99698.94;5085069;28;20052;-71
2021/03/22 02:39:03;;;;;;;128.32;70.43;;;;;;;-0.04;69.45;99696.47;5085640;28;20085;-71
2021/03/22 02:41:35;;;;;;;95.25;44.17;;;;;;;-0.03;69.15;99690.38;5082896;28;20085;-71
2021/03/22 02:44:04;;;;;;;79.72;35.50;;;;;;;-0.02;69.30;99694.66;5084469;28;20051;-71
2021/03/22 02:46:31;;;;;;;85.70;36.50;;;;;;;-0.04;69.46;99696.47;5086123;28;20128;-70
2021/03/22 02:48:59;;;;;;;68.45;33.97;;;;;;;-0.03;69.08;99705.97;5085831;28;20055;-73
2021/03/22 02:51:37;;;;;;;79.72;32.60;;;;;;;-0.05;69.51;99705.16;5085133;28;20044;-70
2021/03/22 02:54:11;;;;;;;62.40;29.65;;;;;;;-0.05;69.15;99708.59;5084753;28;20055;-70
2021/03/22 02:56:42;;;;;;;38.53;23.35;;;;;;;-0.05;69.25;99712.97;5085208;28;20052;-72
2021/03/22 02:59:16;;;;;;;57.80;26.02;;;;;;;-0.06;68.94;99716.44;5084434;28;20048;-71
2021/03/22 03:01:45;;;;;;;65.38;29.90;;;;;;;-0.10;69.12;99709.69;5084707;28;20400;-71
2021/03/22 03:04:15;;;;;;;76.85;34.63;;;;;;;-0.15;69.20;99715.03;5084599;28;20044;-72
2021/03/22 03:06:48;;;;;;;87.85;37.78;;;;;;;-0.16;69.61;99720.28;5084352;28;20113;-72
2021/03/22 03:09:17;;;;;;;84.40;34.25;;;;;;;-0.17;69.60;99724.63;5084651;28;20479;-71
2021/03/22 03:11:43;;;;;;;80.53;33.47;;;;;;;-0.17;69.24;99723.78;5082487;28;20052;-72
2021/03/22 03:14:10;;;;;;;113.88;49.72;;;;;;;-0.15;69.31;99721.97;5084690;28;20044;-73
2021/03/22 03:16:36;;;;;;;85.28;36.63;;;;;;;-0.15;69.33;99724.56;5085587;28;20067;-71
2021/03/22 03:19:03;;;;;;;79.63;32.15;;;;;;;-0.17;69.31;99721.19;5084336;28;20072;-73
2021/03/22 03:21:30;;;;;;;91.15;41.15;;;;;;;-0.20;69.31;99730.78;5083898;28;20084;-72
2021/03/22 03:23:57;;;;;;;58.88;23.48;;;;;;;-0.18;69.03;99727.28;5084356;28;20158;-72
2021/03/22 03:26:23;;;;;;;43.85;16.85;;;;;;;-0.23;69.31;99730.91;5083651;28;20048;-73
2021/03/22 03:28:50;;;;;;;36.88;16.98;;;;;;;-0.22;69.14;99742.13;5084488;28;20474;-74
2021/03/22 03:31:16;;;;;;;19.58;8.98;;;;;;;-0.23;69.04;99737.84;5084404;28;20044;-73
2021/03/22 03:33:44;;;;;;;18.80;9.52;;;;;;;-0.29;69.28;99746.69;5083557;28;20407;-72
2021/03/22 03:36:10;;;;;;;24.45;9.85;;;;;;;-0.30;69.26;99744.16;5083319;28;20048;-70
2021/03/22 03:38:38;;;;;;;19.48;9.88;;;;;;;-0.30;69.10;99747.59;5084009;28;20048;-74
2021/03/22 03:41:05;;;;;;;23.80;9.88;;;;;;;-0.30;69.34;99750.19;5083277;28;20399;-72
2021/03/22 03:43:31;;;;;;;21.60;10.30;;;;;;;-0.26;69.25;99746.56;5083797;28;20059;-73
2021/03/22 03:45:57;;;;;;;22.13;11.63;;;;;;;-0.26;69.18;99756.94;5084603;28;20048;-73
2021/03/22 03:48:25;;;;;;;23.52;11.10;;;;;;;-0.28;69.38;99750.97;5084007;28;20548;-72
2021/03/22 03:50:53;;;;;;;41.20;18.13;;;;;;;-0.28;69.24;99750.97;5083951;28;20040;-75
2021/03/22 03:53:20;;;;;;;35.63;14.35;;;;;;;-0.29;69.33;99748.44;5086797;28;20040;-73
2021/03/22 03:55:48;;;;;;;24.85;11.90;;;;;;;-0.28;69.24;99755.31;5083006;28;20125;-71
2021/03/22 03:58:14;;;;;;;23.13;9.88;;;;;;;-0.29;69.19;99751.91;5083433;28;20422;-71
2021/03/22 04:00:43;;;;;;;23.73;9.90;;;;;;;-0.28;68.93;99756.16;5083851;28;20056;-73
2021/03/22 04:03:18;;;;;;;31.10;11.88;;;;;;;-0.29;69.06;99758.81;5083392;28;20736;-72
2021/03/22 04:05:45;;;;;;;23.48;10.32;;;;;;;-0.30;68.90;99752.78;5083666;28;20555;-71
2021/03/22 04:08:13;;;;;;;22.70;11.43;;;;;;;-0.28;68.94;99758.75;5084199;28;20465;-72
2021/03/22 04:10:40;;;;;;;22.38;12.20;;;;;;;-0.26;69.11;99763.91;5083908;28;20040;-72
2021/03/22 04:13:07;;;;;;;29.58;11.50;;;;;;;-0.28;69.32;99769.13;5082110;28;20048;-76
2021/03/22 04:15:34;;;;;;;70.15;28.77;;;;;;;-0.29;69.12;99775.25;5084450;28;20059;-70
2021/03/22 04:18:00;;;;;;;36.33;12.93;;;;;;;-0.30;68.97;99776.13;5082765;28;20056;-71
2021/03/22 04:20:26;;;;;;;33.50;13.68;;;;;;;-0.31;69.06;99766.66;5083554;28;20148;-72
2021/03/22 04:22:53;;;;;;;19.27;8.98;;;;;;;-0.31;68.94;99769.25;5083403;28;20124;-72
2021/03/22 04:25:19;;;;;;;26.17;10.05;;;;;;;-0.32;68.85;99775.34;5083455;28;20044;-71
2021/03/22 04:27:45;;;;;;;24.17;10.52;;;;;;;-0.31;69.06;99777.03;5083792;28;20108;-72
2021/03/22 04:30:14;;;;;;;21.35;8.98;;;;;;;-0.30;68.98;99773.53;5083802;28;20060;-72
2021/03/22 04:32:41;;;;;;;16.65;8.52;;;;;;;-0.29;69.09;99777.84;5083499;28;20048;-71
2021/03/22 04:35:08;;;;;;;15.65;8.05;;;;;;;-0.29;68.74;99772.66;5083352;28;20463;-73
2021/03/22 04:37:35;;;;;;;15.50;8.02;;;;;;;-0.27;68.75;99773.44;5083641;28;20047;-71
2021/03/22 04:40:01;;;;;;;16.20;8.45;;;;;;;-0.25;68.70;99774.22;5083803;28;20044;-72
2021/03/22 04:42:28;;;;;;;13.52;7.65;;;;;;;-0.23;68.40;99777.63;5081537;28;20048;-71
2021/03/22 04:44:54;;;;;;;18.17;9.93;;;;;;;-0.23;68.16;99780.22;5084237;28;20047;-77
2021/03/22 04:47:21;;;;;;;17.63;9.23;;;;;;;-0.22;68.06;99781.91;5083911;28;20451;-75
2021/03/22 04:49:48;;;;;;;17.33;10.40;;;;;;;-0.14;68.09;99788.59;5083090;28;20430;-76
2021/03/22 04:52:14;;;;;;;27.98;12.70;;;;;;;-0.07;68.32;99793.50;5083676;28;20040;-75
2021/03/22 04:54:41;;;;;;;24.30;10.25;;;;;;;0.09;68.06;99785.13;5083021;28;20048;-77
2021/03/22 04:57:12;;;;;;;27.45;13.93;;;;;;;0.31;67.63;99790.38;5082909;28;20048;-75
2021/03/22 04:59:39;;;;;;;34.67;13.65;;;;;;;0.55;67.26;99786.00;5082711;28;20048;-76
2021/03/22 05:02:06;;;;;;;31.63;15.55;;;;;;;0.84;66.43;99790.03;5082741;28;20052;-76
2021/03/22 05:04:34;;;;;;;28.92;14.02;;;;;;;1.14;66.18;99790.56;5082875;28;20484;-76
2021/03/22 05:07:00;;;;;;;33.25;15.38;;;;;;;1.40;65.59;99785.19;5083273;28;20619;-77
2021/03/22 05:09:27;;;;;;;31.58;15.40;;;;;;;1.52;65.05;99780.31;5083703;28;20052;-72
2021/03/22 05:11:53;;;;;;;29.17;14.75;;;;;;;1.53;65.23;99787.22;5081621;28;20054;-75
2021/03/22 05:14:19;;;;;;;30.10;15.13;;;;;;;1.52;64.97;99784.66;5083221;28;20056;-76
2021/03/22 05:16:46;;;;;;;36.00;18.48;;;;;;;1.56;65.33;99788.81;5083126;28;20125;-76
2021/03/22 05:19:12;;;;;;;46.55;21.38;;;;;;;1.60;64.88;99792.13;5084064;28;20037;-76
2021/03/22 05:21:39;;;;;;;34.78;18.10;;;;;;;1.63;65.22;99794.63;5083963;28;20052;-75
2021/03/22 05:24:06;;;;;;;33.63;20.38;;;;;;;1.66;64.78;99790.13;5083514;28;20055;-75
2021/03/22 05:26:33;;;;;;;44.92;22.35;;;;;;;1.66;65.12;99802.31;5083361;28;20493;-74
2021/03/22 05:28:59;;;;;;;55.78;27.60;;;;;;;1.67;64.94;99801.38;5084390;28;20594;-75
2021/03/22 05:31:25;;;;;;;53.78;27.58;;;;;;;1.73;64.82;99803.72;5085027;28;20501;-76
2021/03/22 05:33:53;;;;;;;52.67;23.65;;;;;;;1.77;64.76;99802.69;5088621;28;20040;-74
2021/03/22 05:36:19;;;;;;;66.55;33.08;;;;;;;1.82;64.77;99808.53;5086845;28;20043;-75
2021/03/22 05:38:47;;;;;;;59.55;33.45;;;;;;;1.89;65.04;99809.09;5087299;28;20055;-75
2021/03/22 05:41:19;;;;;;;69.68;33.80;;;;;;;1.97;65.11;99809.63;5085868;28;20168;-75
2021/03/22 05:43:58;;;;;;;82.95;39.78;;;;;;;2.04;65.06;99810.19;5086170;28;20095;-75
2021/03/22 05:46:41;;;;;;;55.80;30.02;;;;;;;2.13;64.80;99803.75;5085752;28;20542;-76
2021/03/22 05:49:20;;;;;;;63.05;32.55;;;;;;;2.18;64.71;99805.22;5086640;28;20040;-73
2021/03/22 05:52:13;;;;;;;66.57;33.38;;;;;;;2.20;64.86;99807.75;5084904;28;20044;-77
2021/03/22 05:55:08;;;;;;;95.53;47.60;;;;;;;2.24;64.61;99814.50;5086641;28;20056;-77
2021/03/22 05:57:52;;;;;;;94.22;48.72;;;;;;;2.36;64.67;99823.53;5086237;28;20056;-80
2021/03/22 06:00:38;;;;;;;105.47;50.33;;;;;;;2.42;64.53;99818.03;5087235;28;20044;-76
2021/03/22 06:03:10;;;;;;;100.05;51.22;;;;;;;2.52;64.27;99818.47;5085838;28;20048;-75
2021/03/22 06:05:41;;;;;;;91.53;50.30;;;;;;;2.56;64.21;99815.66;5085773;28;20093;-76
2021/03/22 06:08:21;;;;;;;92.07;46.65;;;;;;;2.60;64.36;99826.78;5084499;28;20660;-74
2021/03/22 06:10:51;;;;;;;96.60;48.88;;;;;;;2.68;64.14;99829.84;5085260;28;20075;-75
2021/03/22 06:13:23;;;;;;;98.80;44.72;;;;;;;2.74;64.20;99834.81;5083467;28;20054;-75
2021/03/22 06:15:54;;;;;;;105.32;50.10;;;;;;;2.85;64.22;99832.53;5084406;28;20052;-71
2021/03/22 06:18:28;;;;;;;96.75;46.33;;;;;;;2.98;63.95;99824.97;5084539;28;20416;-75
2021/03/22 06:20:57;;;;;;;85.97;43.08;;;;;;;3.05;63.82;99828.97;5083524;28;20101;-74
2021/03/22 06:23:29;;;;;;;70.43;36.95;;;;;;;3.14;63.47;99827.69;5083350;28;20044;-75
2021/03/22 06:25:57;;;;;;;50.70;29.05;;;;;;;3.17;63.54;99831.88;5084001;28;20498;-75
2021/03/22 06:28:27;;;;;;;56.63;28.52;;;;;;;3.20;63.83;99824.75;5082268;28;20048;-75
2021/03/22 06:31:02;;;;;;;63.22;33.17;;;;;;;3.29;63.36;99830.47;5082708;28;20105;-76
2021/03/22 06:33:33;;;;;;;68.93;32.30;;;;;;;3.24;62.79;99834.16;5081718;28;20051;-75
2021/03/22 06:36:00;;;;;;;55.25;29.52;;;;;;;3.24;62.70;99834.16;5080667;28;20117;-74
2021/03/22 06:38:26;;;;;;;59.47;33.80;;;;;;;3.23;62.70;99842.06;5082401;28;20448;-74
2021/03/22 06:40:53;;;;;;;40.45;23.42;;;;;;;3.27;62.54;99837.53;5081336;28;20059;-74
2021/03/22 06:43:21;;;;;;;35.33;19.27;;;;;;;3.17;61.93;99837.97;5078370;28;20572;-74
2021/03/22 06:45:50;;;;;;;34.20;18.83;;;;;;;3.20;61.97;99850.03;5080239;28;20048;-74
2021/03/22 06:48:21;;;;;;;32.65;19.25;;;;;;;3.19;62.18;99848.34;5080756;28;20075;-75
2021/03/22 06:50:49;;;;;;;38.65;21.02;;;;;;;3.23;61.98;99849.88;5079409;28;20044;-75
2021/03/22 06:53:37;;;;;;;35.10;20.33;;;;;;;3.41;61.98;99845.53;5077073;28;20085;-74
2021/03/22 06:56:11;;;;;;;40.40;23.52;;;;;;;3.51;61.43;99857.22;5074808;28;20076;-74
2021/03/22 06:58:39;;;;;;;39.70;20.40;;;;;;;3.52;61.27;99853.66;5075626;28;20629;-74
2021/03/22 07:01:19;;;;;;;31.73;20.02;;;;;;;3.50;60.82;99854.66;5075823;28;20044;-75
2021/03/22 07:03:46;;;;;;;35.20;20.73;;;;;;;3.50;61.02;99857.28;5076299;28;20083;-74
2021/03/22 07:06:18;;;;;;;37.13;20.40;;;;;;;3.52;61.31;99863.28;5076861;28;20074;-76
2021/03/22 07:08:45;;;;;;;32.10;19.58;;;;;;;3.47;61.13;99855.66;5077731;28;20055;-74
2021/03/22 07:11:13;;;;;;;32.28;17.10;;;;;;;3.47;60.61;99866.09;5075891;28;20055;-75
2021/03/22 07:13:51;;;;;;;24.38;15.48;;;;;;;3.44;59.84;99861.03;5077792;28;20159;-75
2021/03/22 07:16:19;;;;;;;27.85;16.67;;;;;;;3.60;59.85;99869.81;5077328;28;20054;-73
2021/03/22 07:19:08;;;;;;;28.70;17.08;;;;;;;3.61;59.61;99871.47;5077945;28;20093;-73
2021/03/22 07:21:46;;;;;;;25.60;17.00;;;;;;;3.76;59.55;99869.88;5081405;28;20048;-76
2021/03/22 07:24:19;;;;;;;27.58;15.75;;;;;;;3.90;59.22;99878.78;5076531;28;20052;-76
2021/03/22 07:27:12;;;;;;;26.65;15.20;;;;;;;3.98;59.16;99874.84;5078161;28;20122;-75
2021/03/22 07:29:56;;;;;;;19.38;13.88;;;;;;;3.98;58.68;99877.47;4975077;28;20643;-80
2021/03/22 07:32:46;;;;;;;33.35;17.70;;;;;;;4.04;58.23;99878.09;4974295;28;20053;-74
2021/03/22 07:35:35;;;;;;;29.20;18.92;;;;;;;4.07;58.08;99880.50;4974596;28;20050;-75
2021/03/22 07:38:09;;;;;;;38.25;25.08;;;;;;;4.22;57.70;99879.75;4954930;28;20058;-75
2021/03/22 07:40:49;;;;;;;31.58;18.77;;;;;;;4.26;56.80;99875.19;4973597;28;20058;-75
2021/03/22 07:43:27;;;;;;;27.70;18.67;;;;;;;4.43;56.66;99897.81;4970800;28;20694;-74
2021/03/22 07:46:05;;;;;;;40.28;22.85;;;;;;;4.56;56.32;99888.41;4973445;28;20065;-74
2021/03/22 07:48:48;;;;;;;30.02;19.67;;;;;;;4.62;54.87;99897.72;4973676;28;20120;-74
2021/03/22 07:51:56;;;;;;;34.92;19.67;;;;;;;4.66;55.45;99892.22;4971675;28;20047;-73
2021/03/22 07:54:44;;;;;;;29.40;17.85;;;;;;;4.72;54.60;99899.75;4913144;29;20055;-74
2021/03/22 07:57:26;;;;;;;30.08;17.45;;;;;;;4.82;55.46;99899.25;4913303;29;20052;-73
2021/03/22 08:00:03;;;;;;;25.42;14.90;;;;;;;4.98;55.53;99893.06;4914791;29;20181;-73
2021/03/22 08:02:43;;;;;;;27.85;14.82;;;;;;;5.03;54.36;99894.63;4915586;29;20048;-74
2021/03/22 08:05:18;;;;;;;28.50;15.88;;;;;;;5.15;54.68;99902.63;4915811;29;20058;-75
2021/03/22 08:07:59;;;;;;;30.70;17.75;;;;;;;5.20;53.75;99896.28;4990511;28;20050;-74
2021/03/22 08:10:40;;;;;;;31.85;18.73;;;;;;;5.30;53.99;99905.31;4991299;28;20217;-74
2021/03/22 08:13:36;;;;;;;23.35;14.40;;;;;;;5.65;54.03;99897.22;4990296;28;20099;-74
2021/03/22 08:16:22;;;;;;;29.30;15.95;;;;;;;5.81;53.33;99897.19;4912874;29;20138;-73
2021/03/22 08:18:52;;;;;;;;;;;;;;;5.99;52.16;99895.28;4915196;29;20048;-74
2021/03/22 08:21:24;;;;;;;24.02;12.30;;;;;;;5.71;51.63;99904.75;4912702;29;19923;-74
2021/03/22 08:23:55;;;;;;;23.80;15.48;;;;;;;5.84;51.98;99900.47;4912951;29;20058;-76
2021/03/22 08:26:27;;;;;;;22.02;12.95;;;;;;;5.82;51.06;99899.72;4915292;29;20630;-74
2021/03/22 08:29:02;;;;;;;22.55;11.63;;;;;;;5.86;50.62;99910.88;4921235;28;20727;-74
2021/03/22 08:31:34;;;;;;;;;;;;;;;6.34;49.56;99906.28;4991611;28;20057;-75
2021/03/22 08:34:07;;;;;;;20.98;11.77;;;;;;;6.05;50.16;99914.13;4991994;28;19922;-74
2021/03/22 08:36:40;;;;;;;22.67;12.20;;;;;;;6.03;49.83;99909.88;4991161;28;20614;-74
2021/03/22 08:39:24;;;;;;;21.40;11.88;;;;;;;6.07;49.09;99908.78;4990681;28;20049;-74
2021/03/22 08:42:07;;;;;;;19.45;13.90;;;;;;;6.15;48.75;99914.41;4989720;28;20049;-74
2021/03/22 08:44:39;;;;;;;17.42;11.70;;;;;;;6.27;49.70;99915.47;4990046;28;20046;-74
2021/03/22 08:47:16;;;;;;;20.35;12.35;;;;;;;6.27;49.37;99915.47;4990598;28;20045;-74
2021/03/22 08:49:51;;;;;;;19.70;13.40;;;;;;;6.18;48.74;99924.72;4989898;28;20414;-74
2021/03/22 08:52:27;;;;;;;20.63;10.95;;;;;;;6.18;49.32;99924.72;5011348;28;20051;-74
2021/03/22 08:55:01;;;;;;;22.25;11.48;;;;;;;6.41;50.11;99920.72;5074147;28;20135;-73
2021/03/22 08:57:31;;;;;;;16.35;10.48;;;;;;;6.41;49.57;99927.72;5073582;28;20781;-74
2021/03/22 09:00:10;;;;;;;21.08;12.82;;;;;;;6.48;49.45;99929.03;5073149;28;20131;-73
2021/03/22 09:02:38;;;;;;;20.05;11.52;;;;;;;6.46;48.43;99933.53;5075856;28;20522;-73
2021/03/22 09:05:22;;;;;;;19.23;12.15;;;;;;;6.66;49.18;99934.94;5075614;28;20051;-74
2021/03/22 09:07:48;;;;;;;18.92;11.75;;;;;;;6.77;48.13;99929.91;5077349;28;20044;-73
2021/03/22 09:10:38;;;;;;;17.33;9.55;;;;;;;6.89;49.00;99933.53;5078938;28;20051;-73
2021/03/22 09:13:20;;;;;;;19.95;9.27;;;;;;;6.97;47.33;99930.44;5074364;28;20131;-73
2021/03/22 09:15:59;;;;;;;17.95;10.00;;;;;;;6.93;47.88;99939.44;5078862;28;20056;-75
2021/03/22 09:18:25;;;;;;;17.65;10.30;;;;;;;6.94;47.30;99933.25;5077141;28;20059;-73
2021/03/22 09:21:26;;;;;;;12.25;8.75;;;;;;;6.86;45.94;99933.72;5075875;28;20043;-73
2021/03/22 09:23:52;;;;;;;21.38;10.27;;;;;;;7.04;47.33;99943.09;5074135;28;20546;-73
2021/03/22 09:26:55;;;;;;;16.20;11.32;;;;;;;6.94;46.13;99939.34;5074973;28;20051;-73
2021/03/22 09:29:37;;;;;;;17.20;10.35;;;;;;;6.82;48.10;99937.47;5076108;28;20055;-75
2021/03/22 09:32:24;;;;;;;20.05;10.38;;;;;;;6.82;47.68;99950.59;5076436;28;20050;-74
2021/03/22 09:34:52;;;;;;;14.60;8.52;;;;;;;6.64;45.36;99945.53;5075815;28;20047;-73
2021/03/22 09:37:53;;;;;;;15.25;9.00;;;;;;;6.45;46.23;99948.47;5078042;28;20044;-76
2021/03/22 09:40:56;;;;;;;12.80;7.50;;;;;;;6.35;46.51;99951.72;5072279;28;20100;-74
2021/03/22 09:43:31;;;;;;;11.48;5.63;;;;;;;6.31;46.78;99951.06;5075367;28;20097;-75
2021/03/22 09:46:15;;;;;;;7.47;4.03;;;;;;;6.32;47.33;99960.63;5075335;28;20052;-75
2021/03/22 09:48:41;;;;;;;6.88;3.30;;;;;;;6.36;47.00;99943.75;5073743;28;20297;-76
2021/03/22 09:51:43;;;;;;;12.07;5.00;;;;;;;6.56;47.39;99939.94;5074757;28;20059;-75
2021/03/22 09:54:29;;;;;;;7.22;4.38;;;;;;;6.59;45.61;99938.88;4971868;28;20051;-75
2021/03/22 09:57:22;;;;;;;8.07;3.58;;;;;;;6.74;45.86;99926.63;4970947;28;20050;-75
2021/03/22 10:00:24;;;;;;;9.43;5.80;;;;;;;6.79;45.91;99932.41;4973475;28;20050;-74
2021/03/22 10:02:54;;;;;;;11.52;6.45;;;;;;;6.74;46.45;99929.25;4914953;29;20055;-74
2021/03/22 10:05:24;;;;;;;9.07;4.20;;;;;;;6.65;46.10;99931.50;4915673;29;20126;-72
2021/03/22 10:08:15;;;;;;;11.10;6.28;;;;;;;6.54;45.85;99930.47;4914601;29;20047;-75
2021/03/22 10:10:50;;;;;;;11.93;5.82;;;;;;;6.47;45.56;99924.75;4913579;29;20048;-74
2021/03/22 10:13:21;;;;;;;11.55;5.43;;;;;;;6.60;46.24;99925.69;4913923;29;20134;-75
2021/03/22 10:15:51;;;;;;;10.15;6.45;;;;;;;6.88;45.58;99926.63;4912468;29;20174;-76
2021/03/22 10:18:26;;;;;;;13.63;7.25;;;;;;;6.90;45.34;99932.63;4914179;29;20139;-76
2021/03/22 10:21:05;;;;;;;20.77;7.70;;;;;;;6.87;44.43;99925.75;4914720;29;20071;-73
2021/03/22 10:23:34;;;;;;;12.50;8.23;;;;;;;6.99;45.41;99932.03;4913557;29;20063;-74
2021/03/22 10:26:06;;;;;;;10.60;6.22;;;;;;;7.15;44.19;99925.78;4916825;29;20052;-75
2021/03/22 10:28:34;;;;;;;12.73;6.68;;;;;;;7.16;44.27;99924.88;4975970;28;20131;-73
2021/03/22 10:31:04;;;;;;;10.02;6.00;;;;;;;7.24;43.57;99919.97;5009680;28;20045;-74
2021/03/22 10:33:31;;;;;;;11.82;6.65;;;;;;;7.23;42.54;99923.53;5011719;28;20049;-75
2021/03/22 10:36:00;;;;;;;12.82;6.68;;;;;;;7.36;43.96;99924.44;5011886;28;20115;-75
2021/03/22 10:38:30;;;;;;;6.32;3.80;;;;;;;7.70;43.75;99929.28;5010304;28;20139;-77
2021/03/22 10:40:59;;;;;;;12.20;4.53;;;;;;;7.62;42.49;99932.44;5073990;28;20048;-74
2021/03/22 10:43:30;;;;;;;5.75;3.85;;;;;;;7.62;41.65;99927.16;5072214;28;20048;-75
2021/03/22 10:45:59;;;;;;;7.38;4.28;;;;;;;7.57;41.55;99929.25;5073249;28;20055;-77
2021/03/22 10:48:29;;;;;;;9.25;4.60;;;;;;;7.58;41.87;99928.28;5075744;28;20040;-74
2021/03/22 10:51:17;;;;;;;9.25;4.43;;;;;;;7.85;42.45;99923.03;5072618;28;20066;-75
2021/03/22 10:53:59;;;;;;;6.97;2.90;;;;;;;8.14;41.26;99915.81;5073049;28;20048;-74
2021/03/22 10:56:31;;;;;;;5.97;3.03;;;;;;;8.14;39.47;99905.28;5073960;28;20194;-75
2021/03/22 10:59:02;;;;;;;7.07;2.88;;;;;;;8.11;39.81;99916.00;5070669;28;20110;-75
2021/03/22 11:01:35;;;;;;;9.48;3.42;;;;;;;8.11;38.62;99915.16;5072555;28;20708;-76
2021/03/22 11:04:07;;;;;;;8.90;3.33;;;;;;;8.36;38.25;99909.06;5074131;28;20040;-75
2021/03/22 11:06:38;;;;;;;10.50;4.20;;;;;;;8.48;39.04;99897.75;5073789;28;20554;-74
2021/03/22 11:09:08;;;;;;;8.25;3.35;;;;;;;8.43;39.39;99899.84;5073964;28;20044;-74
2021/03/22 11:11:35;;;;;;;7.63;3.40;;;;;;;8.20;39.10;99910.13;5072806;28;20127;-73
2021/03/22 11:14:05;;;;;;;8.68;3.60;;;;;;;8.56;38.34;99905.94;5073440;28;20055;-72
2021/03/22 11:16:35;;;;;;;7.00;3.13;;;;;;;8.98;37.95;99906.50;5073838;28;20056;-74
2021/03/22 11:19:15;;;;;;;5.90;2.85;;;;;;;8.88;36.40;99896.72;5072519;28;20052;-74
2021/03/22 11:21:41;;;;;;;7.78;3.58;;;;;;;8.55;37.67;99898.13;5074420;28;20408;-74
2021/03/22 11:24:17;;;;;;;7.97;3.53;;;;;;;8.67;38.01;99897.28;5074206;28;20048;-74
2021/03/22 11:26:55;;;;;;;;;;;;;;;8.73;37.02;99904.75;5071746;28;20044;-75
2021/03/22 11:29:24;;;;;;;9.02;3.35;;;;;;;8.58;37.21;99898.75;5072809;28;19932;-76
2021/03/22 11:32:00;;;;;;;10.23;5.18;;;;;;;8.63;38.20;99895.00;5073551;28;20640;-75
2021/03/22 11:34:30;;;;;;;6.88;3.58;;;;;;;8.81;36.79;99904.22;5072170;28;20048;-75
2021/03/22 11:37:04;;;;;;;6.72;2.47;;;;;;;8.68;33.72;99884.94;5074337;28;20044;-75
2021/03/22 11:39:33;;;;;;;7.65;2.08;;;;;;;8.48;32.72;99889.84;5072354;28;20116;-76
2021/03/22 11:42:18;;;;;;;5.00;2.35;;;;;;;8.29;34.00;99892.84;5070647;28;20377;-75
2021/03/22 11:44:45;;;;;;;7.00;2.40;;;;;;;8.07;35.10;99900.53;5074780;28;20048;-74
2021/03/22 11:47:46;;;;;;;9.15;4.38;;;;;;;7.94;36.54;99903.13;5072920;28;20126;-74
2021/03/22 11:50:33;;;;;;;5.90;2.80;;;;;;;7.79;37.35;99907.66;5073735;28;20108;-74
2021/03/22 11:53:08;;;;;;;6.50;3.60;;;;;;;7.66;38.43;99905.00;5073372;28;20629;-76